Espanola, Washington
Current Conditions -  °F | °C
As of 4:58 PM on Thursday 27 Nov 2014 (Local Time) from KSKA Reporting Station
Clear Clear  
Wind Chill: 50°   Ceiling: Unl
Heat Index: 50°   Visibility: 10mi
Dew Point: 42°   Wind: 18mph
Humidity: 75%   Direction: 190°S
Pressure: 29.77"   Gusts: 25mph
Location:  47.6094°N, 117.705°W
Report Text: KSKA 280058Z AUTO 19016G22KT 10SM CLR 10/06 A2977 RMK AO2 PK WND 20026/04 SLP086 T01000057
Loading
Personal Weather Stations






























Interactive Weather Map New forecast layout! Learn more

10-Day Weather Forecast

Advertisements
Track Severe Weather on mobile